createdAt,value
2018-12-13T00:01:09.376Z,38996.08
2018-12-13T00:03:14.925Z,38995.11
2018-12-13T00:05:21.070Z,39043.40
2018-12-13T00:07:26.770Z,38994.15
2018-12-13T00:09:32.099Z,39011.53
2018-12-13T00:11:37.299Z,38951.66
2018-12-13T00:13:42.188Z,38942.97
2018-12-13T00:15:47.546Z,38911.10
2018-12-13T00:17:52.631Z,38969.04
2018-12-13T00:19:57.659Z,38941.04
2018-12-13T00:22:02.974Z,38958.42
2018-12-13T00:24:09.339Z,38967.11
2018-12-13T00:26:14.568Z,38970.97
2018-12-13T00:28:25.479Z,38936.21
2018-12-13T00:30:32.602Z,38950.70
2018-12-13T00:32:37.668Z,38939.11
2018-12-13T00:34:43.310Z,38938.14
2018-12-13T00:36:48.426Z,38915.93
2018-12-13T00:38:53.868Z,38920.76
2018-12-13T00:40:59.653Z,38915.93
2018-12-13T00:43:05.188Z,38912.07
2018-12-13T00:45:10.516Z,38895.65
2018-12-13T00:47:16.366Z,38915.93
2018-12-13T00:49:22.251Z,38920.76
2018-12-13T00:51:27.459Z,38894.69
2018-12-13T00:53:32.468Z,38902.41
2018-12-13T00:55:37.837Z,38886.96
2018-12-13T00:57:43.062Z,38914.96
2018-12-13T00:59:48.029Z,38806.82
2018-12-13T01:01:53.443Z,38864.75
2018-12-13T01:03:58.610Z,38877.30
2018-12-13T01:06:03.574Z,38898.55
2018-12-13T01:08:08.813Z,38865.72
2018-12-13T01:10:13.995Z,38884.07
2018-12-13T01:12:19.085Z,38893.72
2018-12-13T01:14:24.115Z,38841.58
2018-12-13T01:16:33.230Z,38841.58
2018-12-13T01:18:38.636Z,38846.41
2018-12-13T01:20:44.090Z,38858.96
2018-12-13T01:22:49.229Z,38878.27
2018-12-13T01:24:55.094Z,38844.48
2018-12-13T01:27:00.156Z,38853.16
2018-12-13T01:29:05.149Z,38877.30
2018-12-13T01:31:10.433Z,38863.79
2018-12-13T01:33:15.575Z,38878.27
2018-12-13T01:35:22.802Z,38899.52
2018-12-13T01:37:28.454Z,38879.24
2018-12-13T01:39:33.588Z,38872.48
2018-12-13T01:41:39.100Z,38891.79
2018-12-13T01:43:44.113Z,38924.62
2018-12-13T01:45:49.811Z,38928.48
2018-12-13T01:47:54.705Z,38895.65
2018-12-13T01:50:00.009Z,38899.52
2018-12-13T01:52:05.159Z,38934.28
2018-12-13T01:54:10.519Z,38911.10
2018-12-13T01:56:15.651Z,38886.96
2018-12-13T01:58:23.805Z,38907.24
2018-12-13T02:00:28.904Z,38908.21
2018-12-13T02:02:34.040Z,38874.41
2018-12-13T02:04:39.692Z,38886.00
2018-12-13T02:06:44.569Z,38857.03
2018-12-13T02:08:50.285Z,38827.09
2018-12-13T02:10:55.717Z,38870.55
2018-12-13T02:13:00.691Z,38766.26
2018-12-13T02:15:07.023Z,38819.37
2018-12-13T02:17:11.991Z,38831.92
2018-12-13T02:19:16.926Z,38834.82
2018-12-13T02:21:22.850Z,38846.41
2018-12-13T02:23:27.926Z,38773.98
2018-12-13T02:25:33.075Z,38819.37
2018-12-13T02:27:39.009Z,38787.50
2018-12-13T02:29:44.904Z,38756.61
2018-12-13T02:31:50.431Z,38783.64
2018-12-13T02:36:08.975Z,38791.37
2018-12-13T02:38:13.951Z,38780.75
2018-12-13T02:40:18.943Z,38799.09
2018-12-13T02:42:24.529Z,38847.37
2018-12-13T02:44:29.735Z,38826.13
2018-12-13T02:46:34.919Z,38860.89
2018-12-13T02:48:40.136Z,38854.13
2018-12-13T02:50:46.193Z,38857.99
2018-12-13T02:52:51.707Z,38828.06
2018-12-13T02:54:57.752Z,38809.71
2018-12-13T02:57:03.308Z,38819.37
2018-12-13T02:59:08.361Z,38732.46
2018-12-13T03:01:14.313Z,38819.37
2018-12-13T03:03:19.459Z,38775.92
2018-12-13T03:05:24.668Z,38809.71
2018-12-13T03:07:30.135Z,38811.64
2018-12-13T03:09:35.170Z,38793.30
2018-12-13T03:11:40.461Z,38801.99
2018-12-13T03:13:45.706Z,38825.16
2018-12-13T03:18:07.901Z,38878.27
2018-12-13T03:20:13.094Z,38812.61
2018-12-13T03:22:18.830Z,38817.44
2018-12-13T03:24:23.700Z,38795.23
2018-12-13T03:26:28.983Z,38784.61
2018-12-13T03:28:35.488Z,38790.40
2018-12-13T03:30:40.621Z,38753.71
2018-12-13T03:32:45.788Z,38761.43
2018-12-13T03:34:51.833Z,38761.43
2018-12-13T03:36:57.164Z,38760.46
2018-12-13T03:39:02.491Z,38782.68
2018-12-13T03:41:07.729Z,38733.43
2018-12-13T03:43:12.782Z,38747.91
2018-12-13T03:45:17.799Z,38773.02
2018-12-13T03:47:22.963Z,38725.71
2018-12-13T03:49:27.993Z,38721.84
2018-12-13T03:51:34.036Z,38707.36
2018-12-13T03:53:39.876Z,38745.98
2018-12-13T03:55:45.034Z,38734.39
2018-12-13T03:57:52.247Z,38731.50
2018-12-13T03:59:58.243Z,38713.15
2018-12-13T04:02:04.380Z,38732.46
2018-12-13T04:04:10.087Z,38721.84
2018-12-13T04:06:15.466Z,38681.29
2018-12-13T04:08:21.114Z,38701.57
2018-12-13T04:10:28.489Z,38665.84
2018-12-13T04:12:33.645Z,38684.19
2018-12-13T04:14:38.531Z,38686.12
2018-12-13T04:16:44.688Z,38734.39
2018-12-13T04:18:49.683Z,38710.26
2018-12-13T04:20:54.781Z,38681.29
2018-12-13T04:22:59.955Z,38673.57
2018-12-13T04:25:05.870Z,38692.87
2018-12-13T04:27:10.731Z,38703.50
2018-12-13T04:29:15.840Z,38680.32
2018-12-13T04:31:20.834Z,38650.39
2018-12-13T04:33:25.992Z,38670.67
2018-12-13T04:35:31.099Z,38741.16
2018-12-13T04:37:37.304Z,38653.29
2018-12-13T04:39:42.160Z,38650.39
2018-12-13T04:41:47.003Z,38664.88
2018-12-13T04:43:51.960Z,38615.63
2018-12-13T04:45:56.951Z,38616.60
2018-12-13T04:48:03.231Z,38614.66
2018-12-13T04:50:08.565Z,38643.63
2018-12-13T04:52:14.144Z,38600.18
2018-12-13T04:54:19.023Z,38538.39
2018-12-13T04:56:23.848Z,38607.91
2018-12-13T04:58:29.096Z,38644.60
2018-12-13T05:00:34.137Z,38585.70
2018-12-13T05:02:39.040Z,38597.29
2018-12-13T05:04:43.958Z,38573.14
2018-12-13T05:06:49.064Z,38595.36
2018-12-13T05:08:54.578Z,38582.80
2018-12-13T05:10:59.359Z,38605.98
2018-12-13T05:13:05.315Z,38611.77
2018-12-13T05:15:10.401Z,38567.35
2018-12-13T05:17:15.254Z,38593.42
2018-12-13T05:19:20.213Z,38573.14
2018-12-13T05:21:25.193Z,38595.36
2018-12-13T05:23:30.144Z,38608.87
2018-12-13T05:25:35.459Z,38530.66
2018-12-13T05:27:40.324Z,38412.87
2018-12-13T05:29:47.610Z,38514.25
2018-12-13T05:31:52.850Z,38565.42
2018-12-13T05:33:58.533Z,38535.49
2018-12-13T05:36:03.756Z,38552.87
2018-12-13T05:38:09.227Z,38490.11
2018-12-13T05:40:15.685Z,38540.32
2018-12-13T05:42:22.672Z,38518.11
2018-12-13T05:44:30.019Z,38495.90
2018-12-13T05:46:35.179Z,38520.04
2018-12-13T05:48:40.690Z,37842.31
2018-12-13T05:50:46.428Z,38493.97
2018-12-13T05:55:47.456Z,38537.42
2018-12-13T05:57:52.755Z,38507.49
2018-12-13T05:59:58.732Z,38501.70
2018-12-13T06:02:03.918Z,38484.32
2018-12-13T06:04:08.959Z,38482.39
2018-12-13T06:06:14.353Z,38448.59
2018-12-13T06:08:20.056Z,38502.66
2018-12-13T06:10:25.099Z,38467.90
2018-12-13T06:12:30.315Z,38522.94
2018-12-13T06:14:36.375Z,38474.66
2018-12-13T06:16:41.612Z,38481.42
2018-12-13T06:18:47.695Z,38495.90
2018-12-13T06:20:53.409Z,38493.01
2018-12-13T06:22:58.504Z,38470.80
2018-12-13T06:25:03.747Z,38494.94
2018-12-13T06:27:08.932Z,38513.28
2018-12-13T06:29:13.989Z,38493.97
2018-12-13T06:31:18.965Z,38504.59
2018-12-13T06:33:25.057Z,38528.73
2018-12-13T06:35:30.790Z,38511.35
2018-12-13T06:37:37.604Z,38535.49
2018-12-13T06:39:42.589Z,38506.52
2018-12-13T06:41:48.374Z,38518.11
2018-12-13T06:43:53.362Z,38527.77
2018-12-13T06:45:59.246Z,38533.56
2018-12-13T06:48:04.731Z,38600.18
2018-12-13T06:50:09.983Z,38534.52
2018-12-13T06:52:15.815Z,38506.52
2018-12-13T06:54:21.245Z,38521.01
2018-12-13T06:56:26.587Z,38511.35
2018-12-13T06:58:31.614Z,38515.21
2018-12-13T07:00:36.831Z,38520.04
2018-12-13T07:02:41.865Z,38480.46
2018-12-13T07:04:47.612Z,38504.59
2018-12-13T07:06:52.645Z,38502.66
2018-12-13T07:08:57.556Z,38479.49
2018-12-13T07:11:03.958Z,38497.83
2018-12-13T07:13:08.938Z,38487.21
2018-12-13T07:15:13.833Z,38469.84
2018-12-13T07:17:18.786Z,38490.11
2018-12-13T07:19:26.710Z,38464.04
2018-12-13T07:21:32.423Z,38465.97
2018-12-13T07:23:38.477Z,38468.87
2018-12-13T07:25:44.423Z,38460.18
2018-12-13T07:27:50.169Z,38475.62
2018-12-13T07:29:55.179Z,38465.01
2018-12-13T07:32:01.076Z,38461.14
2018-12-13T07:34:06.586Z,38446.66
2018-12-13T07:36:16.871Z,38435.07
2018-12-13T07:38:22.187Z,38440.87
2018-12-13T07:40:27.804Z,38454.39
2018-12-13T07:42:32.998Z,38415.77
2018-12-13T07:44:38.352Z,38437.01
2018-12-13T07:46:43.958Z,38460.18
2018-12-13T07:48:49.101Z,38409.01
2018-12-13T07:50:55.397Z,38451.49
2018-12-13T07:53:00.673Z,38436.04
2018-12-13T07:55:05.941Z,38425.42
2018-12-13T07:57:11.022Z,38437.01
2018-12-13T07:59:16.221Z,38466.94
2018-12-13T08:01:22.089Z,38423.49
2018-12-13T08:03:27.094Z,38455.35
2018-12-13T08:05:32.304Z,38413.84
2018-12-13T08:07:37.567Z,38415.77
2018-12-13T08:09:42.573Z,38406.11
2018-12-13T08:11:48.236Z,38441.84
2018-12-13T08:13:55.136Z,38429.28
2018-12-13T08:16:00.334Z,38400.32
2018-12-13T08:18:05.487Z,38399.35
2018-12-13T08:20:11.038Z,38429.28
2018-12-13T08:22:17.116Z,38406.11
2018-12-13T08:24:22.932Z,38421.56
2018-12-13T08:26:28.608Z,38419.63
2018-12-13T08:28:33.808Z,38435.07
2018-12-13T08:30:39.080Z,38404.18
2018-12-13T08:32:44.257Z,38404.18
2018-12-13T08:34:49.348Z,38450.52
2018-12-13T08:36:55.257Z,38405.14
2018-12-13T08:39:01.010Z,38446.66
2018-12-13T08:41:07.460Z,38456.32
2018-12-13T08:43:13.843Z,38422.52
2018-12-13T08:45:19.123Z,38422.52
2018-12-13T08:47:25.401Z,38438.94
2018-12-13T08:49:30.584Z,38423.49
2018-12-13T08:51:36.376Z,38411.91
2018-12-13T08:56:00.132Z,37889.61
2018-12-13T08:58:05.301Z,38433.14
2018-12-13T09:00:10.470Z,38401.29
2018-12-13T09:02:15.251Z,38432.18
2018-12-13T09:04:20.363Z,38458.25
2018-12-13T09:06:25.310Z,38422.52
2018-12-13T09:08:33.816Z,38416.73
2018-12-13T09:10:40.030Z,38399.35
2018-12-13T09:12:45.813Z,38413.84
2018-12-13T09:14:51.881Z,38472.73
2018-12-13T09:16:56.785Z,38437.01
2018-12-13T09:19:01.673Z,38422.52
2018-12-13T09:21:06.559Z,38434.11
2018-12-13T09:23:11.495Z,38462.11
2018-12-13T09:25:16.814Z,38430.25
2018-12-13T09:27:21.916Z,38405.14
2018-12-13T09:29:27.863Z,38470.80
2018-12-13T09:31:33.141Z,38286.39
2018-12-13T09:33:38.715Z,38451.49
2018-12-13T09:35:44.065Z,38453.42
2018-12-13T09:37:49.635Z,38428.32
2018-12-13T09:39:55.400Z,38525.84
2018-12-13T09:42:02.558Z,38443.77
2018-12-13T09:44:10.543Z,38468.87
2018-12-13T09:46:17.583Z,38449.56
2018-12-13T09:48:24.949Z,38441.84
2018-12-13T09:50:32.218Z,38465.01
2018-12-13T09:52:37.304Z,38432.18
2018-12-13T09:54:43.198Z,38451.49
2018-12-13T09:56:51.531Z,38480.46
2018-12-13T09:58:58.185Z,38493.97
2018-12-13T10:01:03.161Z,38454.39
2018-12-13T10:03:08.561Z,38495.90
2018-12-13T10:05:14.752Z,38465.01
2018-12-13T10:07:20.386Z,38485.28
2018-12-13T10:09:25.645Z,38506.52
2018-12-13T10:11:31.443Z,38493.01
2018-12-13T10:13:36.653Z,38536.46
2018-12-13T10:15:41.614Z,38503.63
2018-12-13T10:35:53.536Z,38514.25
2018-12-13T10:37:59.886Z,38516.18
2018-12-13T10:40:06.725Z,38538.39
2018-12-13T10:42:11.502Z,38511.35
2018-12-13T10:44:23.292Z,38490.11
2018-12-13T10:46:28.683Z,38513.28
2018-12-13T10:48:34.489Z,38517.14
2018-12-13T10:50:40.415Z,38554.80
2018-12-13T10:52:47.376Z,38521.01
2018-12-13T10:54:53.226Z,38529.70
2018-12-13T10:57:00.419Z,38533.56
2018-12-13T10:59:06.066Z,38509.42
2018-12-13T11:01:16.975Z,38484.32
2018-12-13T11:03:28.027Z,38538.39
2018-12-13T11:05:35.703Z,38524.87
2018-12-13T11:07:42.285Z,38583.77
2018-12-13T11:09:48.151Z,38558.66
2018-12-13T11:11:54.177Z,38519.07
2018-12-13T11:13:59.491Z,38571.21
2018-12-13T11:16:05.530Z,38545.14
2018-12-13T11:18:13.056Z,38584.73
2018-12-13T11:20:20.400Z,38557.70
2018-12-13T11:22:26.326Z,38554.80
2018-12-13T11:24:31.841Z,38539.35
2018-12-13T11:26:37.196Z,38547.08
2018-12-13T11:30:29.028Z,38445.70
2018-12-13T11:32:34.381Z,38603.08
2018-12-13T11:34:39.723Z,38560.59
2018-12-13T11:36:45.155Z,38594.39
2018-12-13T11:38:51.277Z,38586.66
2018-12-13T11:40:58.359Z,38574.11
2018-12-13T11:43:04.844Z,38583.77
2018-12-13T11:45:10.253Z,38554.80
2018-12-13T11:47:15.358Z,38529.70
2018-12-13T11:49:20.802Z,38574.11
2018-12-13T11:51:26.074Z,38575.08
2018-12-13T11:53:31.089Z,38590.53
2018-12-13T11:55:41.535Z,38533.56
2018-12-13T11:57:48.184Z,38549.01
2018-12-13T11:59:53.654Z,38670.67
2018-12-13T12:01:59.185Z,38571.21
2018-12-13T12:04:05.026Z,38574.11
2018-12-13T12:06:10.415Z,38596.32
2018-12-13T12:08:15.592Z,38598.25
2018-12-13T12:10:27.064Z,38615.63
2018-12-13T12:12:33.111Z,38598.25
2018-12-13T12:14:38.486Z,38575.08
2018-12-13T12:16:43.721Z,38566.39
2018-12-13T12:18:48.963Z,38596.32
2018-12-13T12:20:54.480Z,38565.42
2018-12-13T12:22:59.969Z,38575.08
2018-12-13T12:25:05.798Z,38569.29
2018-12-13T12:27:10.999Z,38610.80
2018-12-13T12:29:16.216Z,38554.80
2018-12-13T12:31:21.684Z,38600.18
2018-12-13T12:33:27.222Z,38626.25
2018-12-13T12:35:32.799Z,38615.63
2018-12-13T12:37:38.191Z,38631.08
2018-12-13T12:39:43.274Z,38578.94
2018-12-13T12:41:48.550Z,38576.04
2018-12-13T12:43:54.749Z,38603.08
2018-12-13T12:46:00.358Z,38613.70
2018-12-13T12:48:05.527Z,38605.01
2018-12-13T12:50:11.040Z,38541.28
2018-12-13T12:52:15.904Z,38609.84
2018-12-13T12:54:21.545Z,38578.94
2018-12-13T12:56:26.868Z,38605.01
2018-12-13T12:58:33.835Z,38605.01
2018-12-13T13:00:39.734Z,38622.39
2018-12-13T13:02:45.153Z,38625.29
2018-12-13T13:04:50.379Z,38585.70
2018-12-13T13:06:55.696Z,38644.60
2018-12-13T13:09:01.135Z,38596.32
2018-12-13T13:11:07.186Z,38622.39
2018-12-13T13:13:12.134Z,38610.80
2018-12-13T13:15:17.930Z,38597.29
2018-12-13T13:17:23.639Z,38617.56
2018-12-13T13:19:31.124Z,38609.84
2018-12-13T13:21:36.753Z,38618.53
2018-12-13T13:23:41.776Z,38556.73
2018-12-13T13:25:46.975Z,38576.04
2018-12-13T13:27:52.131Z,38577.01
2018-12-13T13:29:57.313Z,38568.32
2018-12-13T13:32:02.366Z,38601.14
2018-12-13T13:34:07.429Z,38589.56
2018-12-13T13:36:12.737Z,38591.49
2018-12-13T13:56:24.598Z,38591.49
2018-12-13T13:58:30.389Z,38628.18
2018-12-13T14:00:36.053Z,38563.49
2018-12-13T14:02:43.278Z,38569.29
2018-12-13T14:04:48.582Z,38558.66
2018-12-13T14:06:55.131Z,38465.01
2018-12-13T14:09:01.075Z,38526.80
2018-12-13T14:11:07.949Z,38549.01
2018-12-13T14:13:13.223Z,38590.53
2018-12-13T14:15:18.104Z,38556.73
2018-12-13T14:17:24.043Z,38568.32
2018-12-13T14:19:29.459Z,38553.84
2018-12-13T14:21:34.507Z,38539.35
2018-12-13T14:23:41.652Z,38561.56
2018-12-13T14:25:48.506Z,38559.63
2018-12-13T14:27:53.914Z,38538.39
2018-12-13T14:29:59.526Z,38575.08
2018-12-13T14:32:04.690Z,38549.01
2018-12-13T14:34:10.014Z,38583.77
2018-12-13T14:36:16.021Z,38584.73
2018-12-13T14:38:22.869Z,38512.32
2018-12-13T14:40:28.375Z,38547.08
2018-12-13T14:44:42.855Z,38558.66
2018-12-13T14:46:48.040Z,38518.11
2018-12-13T14:48:53.253Z,38545.14
2018-12-13T14:50:58.378Z,38516.18
2018-12-13T14:53:03.363Z,38509.42
2018-12-13T14:55:09.310Z,38520.04
2018-12-13T14:57:14.780Z,38543.21
2018-12-13T14:59:19.806Z,38546.11
2018-12-13T15:01:24.916Z,38527.77
2018-12-13T15:03:30.080Z,38521.97
2018-12-13T15:05:35.479Z,38477.56
2018-12-13T15:07:40.483Z,38462.11
2018-12-13T15:09:50.791Z,38508.45
2018-12-13T15:11:54.423Z,38488.18
2018-12-13T15:13:59.497Z,38480.46
2018-12-13T15:16:04.622Z,38470.80
2018-12-13T15:18:10.862Z,38509.42
2018-12-13T15:20:15.965Z,38465.01
2018-12-13T15:22:22.048Z,38473.70
2018-12-13T15:24:27.665Z,38447.63
2018-12-13T15:26:33.040Z,38481.42
2018-12-13T15:28:39.621Z,38465.01
2018-12-13T15:30:44.996Z,38447.63
2018-12-13T15:32:51.381Z,38480.46
2018-12-13T15:34:56.904Z,38456.32
2018-12-13T15:37:02.059Z,38467.90
2018-12-13T15:39:08.851Z,38358.80
2018-12-13T15:41:14.309Z,38473.70
2018-12-13T15:43:19.554Z,38443.77
2018-12-13T15:45:25.814Z,38418.66
2018-12-13T15:47:31.435Z,38439.90
2018-12-13T15:49:36.878Z,38423.49
2018-12-13T15:51:43.217Z,38431.21
2018-12-13T15:53:48.717Z,38403.21
2018-12-13T15:55:54.406Z,38441.84
2018-12-13T15:58:02.695Z,38408.04
2018-12-13T16:00:09.510Z,38426.39
2018-12-13T16:02:15.850Z,38404.18
2018-12-13T16:04:25.217Z,38395.49
2018-12-13T16:06:32.021Z,38383.91
2018-12-13T16:08:37.620Z,38362.66
2018-12-13T16:10:43.048Z,38365.56
2018-12-13T16:12:48.172Z,38396.46
2018-12-13T16:14:54.009Z,38462.11
2018-12-13T16:16:59.752Z,38383.91
2018-12-13T16:19:04.886Z,38356.87
2018-12-13T16:21:11.143Z,38411.91
2018-12-13T16:23:16.180Z,38374.25
2018-12-13T16:25:22.393Z,38350.11
2018-12-13T16:27:28.200Z,38351.08
2018-12-13T16:29:34.104Z,38340.46
2018-12-13T16:31:39.733Z,38348.18
2018-12-13T16:33:45.045Z,38353.01
2018-12-13T16:35:50.567Z,38354.94
2018-12-13T16:37:56.066Z,38300.87
2018-12-13T16:40:01.939Z,38339.49
2018-12-13T16:42:08.457Z,38355.91
2018-12-13T16:44:21.304Z,38346.25
2018-12-13T16:46:26.651Z,38335.63
2018-12-13T16:48:32.166Z,38346.25
2018-12-13T16:50:39.186Z,38328.87
2018-12-13T16:52:44.233Z,38378.11
2018-12-13T16:54:50.481Z,38322.11
2018-12-13T16:56:57.380Z,38322.11
2018-12-13T16:59:03.460Z,38335.63
2018-12-13T17:01:08.932Z,38305.70
2018-12-13T17:03:31.892Z,38323.08
2018-12-13T17:05:39.031Z,38298.94
2018-12-13T17:07:44.564Z,38322.11
2018-12-13T17:09:51.619Z,38297.98
2018-12-13T17:11:57.622Z,38302.80
2018-12-13T17:14:03.002Z,38303.77
2018-12-13T17:16:09.965Z,38281.56
2018-12-13T17:18:16.874Z,38314.39
2018-12-13T17:20:24.089Z,38256.46
2018-12-13T17:22:29.987Z,38274.80
2018-12-13T17:24:38.033Z,38288.32
2018-12-13T17:26:43.685Z,38287.36
2018-12-13T17:28:48.830Z,38276.73
2018-12-13T17:30:54.969Z,38318.25
2018-12-13T17:33:00.088Z,38309.56
2018-12-13T17:35:05.846Z,38250.67
2018-12-13T17:37:12.323Z,38293.15
2018-12-13T17:39:18.593Z,38258.39
2018-12-13T17:41:24.382Z,38283.50
2018-12-13T17:43:30.478Z,38280.60
2018-12-13T17:45:36.693Z,38293.15
2018-12-13T17:47:43.038Z,38283.50
2018-12-13T17:49:48.568Z,38244.87
2018-12-13T17:51:55.689Z,38241.98
2018-12-13T17:54:01.308Z,38264.19
2018-12-13T17:56:07.219Z,38263.22
2018-12-13T17:58:13.092Z,38230.39
2018-12-13T18:00:18.231Z,38217.84
2018-12-13T18:02:23.842Z,38238.12
2018-12-13T18:04:36.637Z,38253.57
2018-12-13T18:06:42.403Z,38279.63
2018-12-13T18:08:51.687Z,38277.70
2018-12-13T18:10:57.897Z,38293.15
2018-12-13T18:13:04.643Z,38471.77
2018-12-13T18:15:10.522Z,38350.11
2018-12-13T18:17:18.101Z,38362.66
2018-12-13T18:19:25.190Z,38341.42
2018-12-13T18:21:30.424Z,38389.70
2018-12-13T18:23:40.590Z,38343.36
2018-12-13T18:25:48.458Z,38375.21
2018-12-13T18:27:55.484Z,38400.32
2018-12-13T18:30:02.893Z,38398.39
2018-12-13T18:32:09.908Z,38404.18
2018-12-13T18:34:17.757Z,38435.07
2018-12-13T18:36:24.491Z,38418.66
2018-12-13T18:38:30.218Z,38401.29
2018-12-13T18:40:42.726Z,38415.77
2018-12-13T18:42:49.017Z,38443.77
2018-12-13T18:44:54.903Z,38436.04
2018-12-13T18:47:00.847Z,38404.18
2018-12-13T18:49:12.354Z,38411.91
2018-12-13T18:51:30.856Z,38414.80
2018-12-13T18:56:11.208Z,38447.63
2018-12-13T18:58:23.923Z,38436.04
2018-12-13T19:00:34.741Z,38427.35
2018-12-13T19:02:47.574Z,38450.52
2018-12-13T19:04:52.623Z,38461.14
2018-12-13T19:07:05.173Z,38464.04
2018-12-13T19:09:19.327Z,38472.73
2018-12-13T19:11:25.490Z,38468.87
2018-12-13T19:13:31.656Z,38438.94
2018-12-13T19:15:38.861Z,38448.59
2018-12-13T19:17:44.922Z,38486.25
2018-12-13T19:19:50.501Z,38463.07
2018-12-13T19:21:56.060Z,38454.39
2018-12-13T19:24:01.829Z,38463.07
2018-12-13T19:26:07.868Z,38439.90
2018-12-13T19:28:13.691Z,38468.87
2018-12-13T19:30:18.998Z,38577.97
2018-12-13T19:32:24.292Z,38478.52
2018-12-13T19:34:29.695Z,38442.80
2018-12-13T19:36:34.998Z,38473.70
2018-12-13T19:38:41.154Z,38473.70
2018-12-13T19:40:48.490Z,38485.28
2018-12-13T19:42:53.760Z,38467.90
2018-12-13T19:44:59.380Z,38460.18
2018-12-13T19:47:04.898Z,38476.59
2018-12-13T19:49:12.984Z,38465.01
2018-12-13T19:51:18.545Z,38479.49
2018-12-13T19:53:25.855Z,38445.70
2018-12-13T19:55:31.795Z,38458.25
2018-12-13T19:57:37.737Z,38477.56
2018-12-13T19:59:44.804Z,38478.52
2018-12-13T20:01:51.574Z,38454.39
2018-12-13T20:03:57.908Z,38508.45
2018-12-13T20:06:05.627Z,38490.11
2018-12-13T20:08:11.301Z,38499.77
2018-12-13T20:10:18.844Z,38493.01
2018-12-13T20:12:25.277Z,38491.07
2018-12-13T20:14:33.676Z,38504.59
2018-12-13T20:16:44.078Z,38493.97
2018-12-13T20:18:51.800Z,38460.18
2018-12-13T20:20:57.799Z,38453.42
2018-12-13T20:23:05.870Z,38487.21
2018-12-13T20:25:11.771Z,38466.94
2018-12-13T20:27:24.265Z,38485.28
2018-12-13T20:29:31.891Z,38460.18
2018-12-13T20:31:42.166Z,38449.56
2018-12-13T20:33:49.100Z,38475.62
2018-12-13T20:35:55.809Z,38499.77
2018-12-13T20:38:06.407Z,38460.18
2018-12-13T20:40:14.162Z,38499.77
2018-12-13T20:42:24.340Z,38471.77
2018-12-13T20:44:31.136Z,38487.21
2018-12-13T20:46:36.732Z,38501.70
2018-12-13T20:48:45.291Z,38521.01
2018-12-13T20:50:52.078Z,38498.80
2018-12-13T20:52:59.454Z,38485.28
2018-12-13T20:55:05.926Z,38496.87
2018-12-13T20:57:13.657Z,38506.52
2018-12-13T20:59:19.086Z,38507.49
2018-12-13T21:01:24.880Z,38493.01
2018-12-13T21:03:30.472Z,38495.90
2018-12-13T21:05:37.310Z,38508.45
2018-12-13T21:07:44.362Z,38495.90
2018-12-13T21:09:51.842Z,38533.56
2018-12-13T21:12:04.034Z,38490.11
2018-12-13T21:14:10.870Z,38502.66
2018-12-13T21:16:17.570Z,38497.83
2018-12-13T21:18:23.527Z,38474.66
2018-12-13T21:20:31.155Z,38492.04
2018-12-13T21:22:36.629Z,38482.39
2018-12-13T21:24:44.530Z,38500.73
2018-12-13T21:26:51.657Z,38493.97
2018-12-13T21:28:57.136Z,38510.39
2018-12-13T21:31:04.235Z,38490.11
2018-12-13T21:33:10.819Z,38493.97
2018-12-13T21:35:17.652Z,38473.70
2018-12-13T21:37:22.615Z,38468.87
2018-12-13T21:39:27.752Z,38488.18
2018-12-13T21:41:33.737Z,38469.84
2018-12-13T21:43:46.523Z,38487.21
2018-12-13T21:45:53.327Z,38468.87
2018-12-13T21:47:59.748Z,38464.04
2018-12-13T21:50:09.303Z,38463.07
2018-12-13T21:52:21.605Z,38458.25
2018-12-13T21:54:29.906Z,38486.25
2018-12-13T21:56:36.464Z,38479.49
2018-12-13T21:58:46.646Z,38485.28
2018-12-13T22:00:54.576Z,38473.70
2018-12-13T22:03:07.037Z,37622.22
2018-12-13T22:05:13.905Z,38464.04
2018-12-13T22:07:21.039Z,38484.32
2018-12-13T22:09:27.202Z,38450.52
2018-12-13T22:11:33.372Z,38454.39
2018-12-13T22:13:45.285Z,38447.63
2018-12-13T22:15:52.622Z,38508.45
2018-12-13T22:18:00.903Z,38470.80
2018-12-13T22:20:07.679Z,38434.11
2018-12-13T22:22:15.294Z,38436.04
2018-12-13T22:24:22.366Z,38455.35
2018-12-13T22:26:28.597Z,38480.46
2018-12-13T22:28:35.285Z,38452.46
2018-12-13T22:30:41.267Z,38462.11
2018-12-13T22:32:46.941Z,38479.49
2018-12-13T22:34:51.942Z,38467.90
2018-12-13T22:36:59.384Z,38449.56
2018-12-13T22:39:07.215Z,38487.21
2018-12-13T22:41:14.164Z,38484.32
2018-12-13T22:45:59.724Z,38466.94
2018-12-13T22:48:07.985Z,38454.39
2018-12-13T22:50:16.664Z,38474.66
2018-12-13T22:52:23.724Z,38479.49
2018-12-13T22:54:31.949Z,38488.18
2018-12-13T22:56:37.353Z,38486.25
2018-12-13T22:58:42.595Z,38471.77
2018-12-13T23:00:47.886Z,38493.01
2018-12-13T23:02:53.302Z,38495.90
2018-12-13T23:04:59.543Z,38500.73
2018-12-13T23:07:14.423Z,38488.18
2018-12-13T23:09:20.888Z,38507.49
2018-12-13T23:11:32.795Z,38480.46
2018-12-13T23:15:54.837Z,38494.94
2018-12-13T23:18:03.257Z,38496.87
2018-12-13T23:20:12.960Z,38510.39
2018-12-13T23:22:18.652Z,38504.59
2018-12-13T23:24:25.170Z,38514.25
2018-12-13T23:26:30.293Z,38529.70
2018-12-13T23:28:37.934Z,38498.80
2018-12-13T23:30:43.761Z,38547.08
2018-12-13T23:32:49.278Z,38509.42
2018-12-13T23:34:55.358Z,38506.52
2018-12-13T23:37:01.582Z,38486.25
2018-12-13T23:39:07.491Z,38497.83
2018-12-13T23:41:12.435Z,38474.66
2018-12-13T23:43:17.341Z,38506.52
2018-12-13T23:45:23.122Z,38503.63
2018-12-13T23:47:28.470Z,38503.63
2018-12-13T23:49:35.481Z,38478.52
2018-12-13T23:51:42.242Z,38496.87
2018-12-13T23:53:47.827Z,38491.07
2018-12-13T23:55:53.208Z,38536.46
2018-12-13T23:57:58.161Z,38500.73
